Time;durP1;ratioP1;P1;durP2;ratioP2;P2;SDS_P1;SDS_P2;PMS_P1;PMS_P2;Temp;Humidity;BMP_temperature;BMP_pressure;BME280_temperature;BME280_humidity;BME280_pressure;Samples;Min_cycle;Max_cycle;Signal;HPM_P1;HPM_P2
2024/01/16 00:01:09;;;;;;;;;;;5.20;55.20;;;3.35;60.60;99645.75;12245933;19;20097;-84
2024/01/16 00:05:10;;;;;;;;;;;5.10;55.20;;;3.41;60.58;99673.84;12248452;19;19926;-84
2024/01/16 00:09:12;;;;;;;;;;;5.10;55.20;;;3.14;60.63;99632.00;12247062;19;19918;-84
2024/01/16 00:13:14;;;;;;;;;;;5.10;55.20;;;3.31;60.64;99664.81;12244183;19;19937;-84
2024/01/16 00:17:15;;;;;;;;;;;5.10;55.30;;;3.21;60.50;99651.47;12239970;19;19994;-84
2024/01/16 00:21:17;;;;;;;;;;;5.10;55.30;;;3.37;60.70;99680.03;12245047;19;19915;-84
2024/01/16 00:25:20;;;;;;;;;;;5.10;55.40;;;3.39;60.75;99696.28;12245595;19;19922;-84
2024/01/16 00:29:21;;;;;;;;;;;5.10;55.40;;;3.41;60.61;99704.81;12244110;19;19970;-84
2024/01/16 00:33:23;;;;;;;;;;;5.10;55.40;;;3.42;60.79;99714.22;12244360;19;19982;-84
2024/01/16 00:37:24;;;;;;;;;;;5.20;55.40;;;3.42;60.59;99716.81;12240341;19;20268;-85
2024/01/16 00:41:26;;;;;;;;;;;5.10;55.50;;;3.14;60.70;99667.28;12248299;19;19954;-84
2024/01/16 00:45:28;;;;;;;;;;;5.10;55.40;;;3.17;60.66;99667.97;12244244;19;19919;-84
2024/01/16 00:49:29;;;;;;;;;;;5.30;55.50;;;3.37;60.77;99702.41;12245483;19;20309;-84
2024/01/16 00:53:31;;;;;;;;;;;5.10;55.40;;;3.38;60.73;99712.69;12242460;19;19903;-85
2024/01/16 00:57:32;;;;;;;;;;;5.10;55.40;;;3.44;60.82;99725.31;12240680;19;19923;-84
2024/01/16 01:01:36;;;;;;;;;;;5.10;55.50;;;3.38;60.55;99725.59;12245600;19;19911;-84
2024/01/16 01:05:38;;;;;;;;;;;5.10;55.40;;;3.40;60.78;99749.56;12242535;19;19935;-84
2024/01/16 01:09:40;;;;;;;;;;;5.40;55.50;;;2.99;60.64;99692.78;12245367;19;19915;-84
2024/01/16 01:13:41;;;;;;;;;;;5.00;55.40;;;3.32;60.72;99751.63;12242865;19;19915;-84
2024/01/16 01:17:43;;;;;;;;;;;5.00;55.40;;;2.87;60.48;99701.03;12242388;19;19910;-84
2024/01/16 01:21:44;;;;;;;;;;;5.00;55.40;;;3.27;60.61;99774.22;12244060;19;19919;-84
2024/01/16 01:25:46;;;;;;;;;;;4.90;55.40;;;3.14;60.31;99779.03;12243096;19;20365;-84
2024/01/16 01:29:47;;;;;;;;;;;4.90;55.40;;;3.12;60.22;99782.56;12252670;19;19919;-84
2024/01/16 01:33:49;;;;;;;;;;;5.00;55.50;;;2.63;60.53;99729.44;12255320;19;20246;-85
2024/01/16 01:37:50;;;;;;;;;;;5.00;55.40;;;2.90;60.58;99783.41;12251324;19;19933;-85
2024/01/16 01:41:52;;;;;;;;;;;4.70;55.40;;;2.93;60.58;99809.06;12253801;19;19927;-85
2024/01/16 01:45:59;;;;;;;;;;;4.60;55.50;;;2.90;60.56;99814.34;12252277;19;19918;-85
2024/01/16 01:50:03;;;;;;;;;;;4.60;55.50;;;2.84;60.66;99794.81;12255103;19;19974;-85
2024/01/16 01:54:05;;;;;;;;;;;4.70;55.60;;;2.81;60.57;99794.09;12248741;19;19919;-85
2024/01/16 01:58:06;;;;;;;;;;;4.50;55.60;;;2.66;60.43;99773.13;12248649;19;19918;-85
2024/01/16 02:02:08;;;;;;;;;;;4.50;55.60;;;2.58;60.64;99757.13;12253463;19;19915;-85
2024/01/16 02:06:11;;;;;;;;;;;4.70;55.80;;;2.72;60.35;99791.84;12250681;19;19930;-85
2024/01/16 02:10:12;;;;;;;;;;;4.50;55.60;;;2.83;60.53;99816.31;12253584;19;19929;-85
2024/01/16 02:14:14;;;;;;;;;;;4.50;55.70;;;2.84;60.61;99812.00;12250579;19;20303;-85
2024/01/16 02:18:16;;;;;;;;;;;4.70;55.80;;;2.87;60.60;99829.94;12250243;19;19915;-85
2024/01/16 02:22:21;;;;;;;;;;;4.50;55.70;;;2.82;60.50;99813.81;12253614;19;20245;-85
2024/01/16 02:26:23;;;;;;;;;;;4.70;55.80;;;2.82;60.49;99818.97;12249048;19;19944;-85
2024/01/16 02:30:25;;;;;;;;;;;4.50;55.60;;;2.85;60.49;99831.72;12250214;19;19923;-85
2024/01/16 02:34:26;;;;;;;;;;;4.70;55.70;;;2.85;60.55;99835.16;12251063;19;19918;-85
2024/01/16 02:38:28;;;;;;;;;;;4.50;56.00;;;2.49;60.48;99785.81;12246750;19;19931;-85
2024/01/16 02:42:29;;;;;;;;;;;4.50;55.70;;;2.65;60.51;99825.59;12253169;19;19922;-84
2024/01/16 02:46:32;;;;;;;;;;;4.50;55.60;;;2.79;60.65;99850.00;12248679;19;19915;-85
2024/01/16 02:50:34;;;;;;;;;;;4.40;55.60;;;2.82;60.57;99868.78;12252614;19;19922;-85
2024/01/16 02:54:35;;;;;;;;;;;4.50;55.70;;;2.77;60.78;99875.00;12239862;19;19990;-85
2024/01/16 02:58:37;;;;;;;;;;;4.50;55.70;;;2.84;60.44;99889.38;12248060;19;19919;-85
2024/01/16 03:02:39;;;;;;;;;;;4.50;55.70;;;2.82;60.53;99884.25;12249231;19;19919;-85
2024/01/16 03:06:40;;;;;;;;;;;4.50;55.70;;;2.54;60.64;99845.78;12248189;19;19967;-85
2024/01/16 03:10:42;;;;;;;;;;;4.50;55.60;;;2.80;60.36;99903.25;12247981;19;19932;-85
2024/01/16 03:14:43;;;;;;;;;;;4.40;55.50;;;2.61;60.68;99893.59;12248916;19;19978;-85
2024/01/16 03:18:45;;;;;;;;;;;4.60;55.60;;;2.58;60.71;99891.13;12246230;19;19915;-85
2024/01/16 03:22:47;;;;;;;;;;;4.70;55.70;;;2.64;60.61;99911.53;12246838;19;20345;-85
2024/01/16 03:26:48;;;;;;;;;;;4.30;55.50;;;2.54;60.53;99910.19;12248780;19;19935;-85
2024/01/16 03:30:50;;;;;;;;;;;4.40;55.60;;;2.53;60.62;99913.66;12246586;19;20241;-85
2024/01/16 03:34:51;;;;;;;;;;;4.30;55.50;;;2.55;60.54;99916.19;12246120;19;19957;-85
2024/01/16 03:38:53;;;;;;;;;;;4.50;55.60;;;2.63;60.54;99927.06;12242482;19;19926;-85
2024/01/16 03:42:54;;;;;;;;;;;4.30;55.60;;;2.47;60.39;99913.03;12247968;19;19922;-85
2024/01/16 03:46:56;;;;;;;;;;;4.20;55.50;;;2.53;60.60;99944.56;12245791;19;19926;-85
2024/01/16 03:50:58;;;;;;;;;;;4.20;55.50;;;2.43;60.47;99943.19;12245248;19;19918;-85
2024/01/16 03:54:59;;;;;;;;;;;4.20;55.40;;;2.33;60.71;99952.16;12247222;19;19926;-85
2024/01/16 03:59:01;;;;;;;;;;;4.40;55.50;;;2.38;60.51;99973.47;12243017;19;19918;-85
2024/01/16 04:03:03;;;;;;;;;;;4.10;55.40;;;2.40;60.54;99977.66;12248574;19;19907;-86
2024/01/16 04:07:04;;;;;;;;;;;4.10;55.40;;;2.34;60.39;99990.72;12245657;19;19943;-85
2024/01/16 04:11:11;;;;;;;;;;;4.00;55.40;;;2.29;60.62;99982.31;12245917;19;19919;-86
2024/01/16 04:15:13;;;;;;;;;;;4.00;55.50;;;1.80;60.31;99904.09;12244925;19;19919;-86
2024/01/16 04:19:14;;;;;;;;;;;4.00;55.50;;;2.32;60.54;99997.69;12244652;19;19922;-86
2024/01/16 04:23:17;;;;;;;;;;;4.00;55.50;;;2.21;60.62;99976.56;12246182;19;19919;-87
2024/01/16 04:27:18;;;;;;;;;;;4.30;55.70;;;2.21;60.49;99979.16;12246610;19;19966;-86
2024/01/16 04:31:22;;;;;;;;;;;4.00;55.60;;;2.20;60.74;99980.88;12244959;19;19927;-86
2024/01/16 04:35:23;;;;;;;;;;;3.90;55.60;;;2.22;60.53;99988.56;12243854;19;20397;-86
2024/01/16 04:39:25;;;;;;;;;;;4.00;55.70;;;2.04;60.41;99966.81;12246179;19;20242;-86
2024/01/16 04:43:26;;;;;;;;;;;3.90;55.60;;;1.92;60.59;99944.06;12247348;19;19911;-86
2024/01/16 04:47:28;;;;;;;;;;;4.00;56.10;;;2.31;60.41;100023.50;12241787;19;20321;-86
2024/01/16 04:51:29;;;;;;;;;;;4.00;55.70;;;2.16;60.58;100002.50;12242587;19;19947;-85
2024/01/16 04:55:31;;;;;;;;;;;4.00;55.70;;;2.30;60.58;100012.34;12239403;19;19926;-85
2024/01/16 04:59:32;;;;;;;;;;;4.00;55.70;;;2.27;60.57;100009.00;12244993;19;19978;-86
2024/01/16 05:03:34;;;;;;;;;;;4.10;55.70;;;2.26;60.63;100010.75;12250267;19;20369;-86
2024/01/16 05:07:35;;;;;;;;;;;4.00;55.60;;;2.25;60.63;100010.81;12251234;19;19915;-86
2024/01/16 05:11:37;;;;;;;;;;;4.30;55.80;;;2.20;60.77;99998.91;12256843;19;19921;-86
2024/01/16 05:15:38;;;;;;;;;;;4.20;55.70;;;1.95;60.62;99972.28;12250597;19;19982;-86
2024/01/16 05:19:39;;;;;;;;;;;4.20;56.10;;;2.15;60.46;100015.41;12255623;19;20299;-86
2024/01/16 05:23:41;;;;;;;;;;;4.00;55.70;;;2.18;60.74;100026.44;12253341;19;19990;-86
2024/01/16 05:27:43;;;;;;;;;;;4.00;55.60;;;2.06;60.58;100021.69;12251250;19;20337;-85
2024/01/16 05:31:44;;;;;;;;;;;4.10;55.70;;;1.95;60.58;100001.44;12250254;19;19915;-86
2024/01/16 05:35:46;;;;;;;;;;;3.90;55.60;;;2.17;60.58;100042.81;12252590;19;19960;-86
2024/01/16 05:39:47;;;;;;;;;;;3.90;55.60;;;2.03;60.59;100016.66;12252577;19;19923;-86
2024/01/16 05:43:49;;;;;;;;;;;3.90;55.60;;;2.21;60.63;100056.41;12252098;19;20262;-86
2024/01/16 05:47:51;;;;;;;;;;;3.90;55.60;;;2.10;60.77;100046.44;12252500;19;20257;-86
2024/01/16 05:51:52;;;;;;;;;;;3.90;55.50;;;1.90;60.77;100031.63;12254327;19;19911;-86
2024/01/16 05:55:54;;;;;;;;;;;3.90;55.60;;;2.02;60.68;100040.69;12251391;19;19911;-86
2024/01/16 05:59:56;;;;;;;;;;;3.90;55.60;;;2.11;60.60;100073.91;12254822;19;19926;-85
2024/01/16 06:03:57;;;;;;;;;;;3.90;55.60;;;2.08;60.67;100078.28;12252731;19;19948;-86
2024/01/16 06:07:59;;;;;;;;;;;4.00;55.60;;;1.99;60.66;100069.13;12250195;19;20269;-86
2024/01/16 06:12:00;;;;;;;;;;;4.10;55.70;;;2.07;60.53;100097.22;12253023;19;19922;-86
2024/01/16 06:16:02;;;;;;;;;;;3.80;55.50;;;2.06;60.65;100098.94;12246243;19;19978;-86
2024/01/16 06:20:06;;;;;;;;;;;3.80;55.50;;;1.84;60.77;100073.00;12253162;19;19947;-86
2024/01/16 06:24:08;;;;;;;;;;;3.80;55.50;;;2.01;60.65;100103.41;12253168;19;20562;-86
2024/01/16 06:28:09;;;;;;;;;;;3.80;55.50;;;1.93;60.50;100102.78;12248477;19;19915;-86
2024/01/16 06:32:11;;;;;;;;;;;3.80;55.50;;;1.98;60.74;100124.94;12253689;19;19907;-86
2024/01/16 06:36:12;;;;;;;;;;;4.00;55.70;;;2.02;60.79;100135.13;12247300;19;19932;-86
2024/01/16 06:40:14;;;;;;;;;;;3.70;55.50;;;1.96;60.83;100131.00;12253230;19;19911;-86
2024/01/16 06:44:16;;;;;;;;;;;3.70;55.50;;;1.84;60.59;100118.50;12252933;19;19978;-85
2024/01/16 06:48:17;;;;;;;;;;;3.70;55.50;;;1.87;60.60;100126.97;12246965;19;19919;-86
2024/01/16 06:52:19;;;;;;;;;;;3.70;55.50;;;1.88;60.48;100135.53;12250936;19;20250;-86
2024/01/16 06:56:21;;;;;;;;;;;3.70;55.50;;;1.83;60.74;100121.94;12247519;19;19930;-86
2024/01/16 07:00:25;;;;;;;;;;;3.70;55.60;;;1.92;60.55;100157.75;12252015;19;19944;-86
2024/01/16 07:04:27;;;;;;;;;;;3.60;55.90;;;1.93;60.60;100160.25;12254631;19;20293;-86
2024/01/16 07:08:29;;;;;;;;;;;3.60;55.50;;;1.71;60.67;100136.03;12245589;19;20341;-86
2024/01/16 07:12:30;;;;;;;;;;;3.80;55.60;;;1.76;60.61;100144.47;12251328;19;19924;-86
2024/01/16 07:16:31;;;;;;;;;;;3.60;55.50;;;1.89;60.77;100180.97;12246852;19;19923;-86
2024/01/16 07:20:33;;;;;;;;;;;3.60;55.50;;;1.66;60.64;100146.44;12252739;19;19929;-86
2024/01/16 07:24:35;;;;;;;;;;;3.80;55.70;;;1.88;60.58;100192.19;12250863;19;19919;-86
2024/01/16 07:28:36;;;;;;;;;;;3.60;55.60;;;1.77;60.55;100180.44;12246706;19;19922;-86
2024/01/16 07:32:38;;;;;;;;;;;3.60;55.60;;;1.71;60.62;100180.63;12249455;19;19951;-85
2024/01/16 07:36:39;;;;;;;;;;;3.60;55.60;;;1.87;60.57;100211.09;12243958;19;19992;-86
2024/01/16 07:40:41;;;;;;;;;;;3.80;55.70;;;1.93;60.80;100231.50;12247757;19;19974;-85
2024/01/16 07:44:42;;;;;;;;;;;3.60;55.60;;;1.71;60.81;100190.91;12248666;19;19919;-86
2024/01/16 07:48:44;;;;;;;;;;;3.60;55.70;;;1.87;60.68;100222.22;12246495;19;19926;-85
2024/01/16 07:52:45;;;;;;;;;;;3.60;55.70;;;1.88;60.82;100213.59;12248713;19;19915;-85
2024/01/16 07:56:47;;;;;;;;;;;3.70;55.70;;;1.80;60.58;100194.13;12248738;19;20353;-86
2024/01/16 08:00:48;;;;;;;;;;;3.70;55.70;;;1.92;60.75;100210.06;12249860;19;19943;-86
2024/01/16 08:04:50;;;;;;;;;;;3.70;55.70;;;1.90;60.73;100218.72;12248183;19;20018;-85
2024/01/16 08:08:51;;;;;;;;;;;3.70;55.70;;;1.70;60.72;100194.38;12243684;19;19923;-86
2024/01/16 08:12:53;;;;;;;;;;;3.70;55.70;;;1.59;60.69;100175.78;12249826;19;19923;-86
2024/01/16 08:16:54;;;;;;;;;;;4.00;55.80;;;1.86;60.87;100230.81;12246974;19;19936;-85
2024/01/16 08:20:55;;;;;;;;;;;3.70;55.70;;;1.80;60.84;100218.13;12250220;19;19918;-85
2024/01/16 08:24:57;;;;;;;;;;;3.80;55.70;;;2.01;60.71;100255.31;12248491;19;19926;-86
2024/01/16 08:28:58;;;;;;;;;;;3.70;55.80;;;1.90;60.89;100236.75;12246126;19;19919;-86
2024/01/16 08:33:00;;;;;;;;;;;3.80;55.80;;;1.99;60.82;100249.34;12248449;19;19966;-85
2024/01/16 08:37:01;;;;;;;;;;;3.60;55.80;;;1.89;60.99;100235.91;12245064;19;19915;-86
2024/01/16 08:41:06;;;;;;;;;;;3.80;55.80;;;2.04;60.83;100268.09;12248856;19;19932;-85
2024/01/16 08:45:08;;;;;;;;;;;3.80;55.80;;;1.98;60.85;100252.81;12246935;19;19915;-85
2024/01/16 08:49:11;;;;;;;;;;;3.80;55.80;;;1.83;61.01;100235.22;12247890;19;19967;-85
2024/01/16 08:53:12;;;;;;;;;;;3.80;55.80;;;2.12;60.88;100273.03;12247471;19;19915;-86
2024/01/16 08:57:14;;;;;;;;;;;3.80;55.80;;;2.09;61.06;100263.66;12246897;19;19915;-86
2024/01/16 09:01:15;;;;;;;;;;;3.90;55.90;;;2.09;60.88;100262.84;12247202;19;20322;-86
2024/01/16 09:05:16;;;;;;;;;;;3.90;55.90;;;2.13;60.95;100270.44;12246089;19;19915;-85
2024/01/16 09:09:18;;;;;;;;;;;4.10;56.00;;;2.10;60.89;100260.19;12247398;19;19917;-84
2024/01/16 09:13:20;;;;;;;;;;;3.90;55.90;;;2.08;60.78;100266.28;12245600;19;20260;-84
2024/01/16 09:17:21;;;;;;;;;;;3.90;55.90;;;1.96;61.03;100241.72;12241050;19;19919;-84
2024/01/16 09:21:23;;;;;;;;;;;4.10;56.00;;;2.19;60.77;100283.13;12247519;19;19911;-84
2024/01/16 09:25:27;;;;;;;;;;;3.90;55.90;;;1.92;60.94;100240.97;12244160;19;19952;-86
2024/01/16 09:29:28;;;;;;;;;;;3.90;56.00;;;1.60;60.85;100181.81;12248032;19;19983;-85
2024/01/16 09:33:29;;;;;;;;;;;4.10;56.10;;;2.25;60.77;100294.16;12245553;19;19918;-86
2024/01/16 09:37:31;;;;;;;;;;;4.00;56.00;;;1.99;60.94;100252.78;12245726;19;19919;-87
2024/01/16 09:41:34;;;;;;;;;;;4.00;56.00;;;2.14;60.90;100272.13;12245537;19;20258;-87
2024/01/16 09:45:37;;;;;;;;;;;4.00;56.00;;;2.25;61.08;100279.53;12240319;19;19923;-86
2024/01/16 09:49:39;;;;;;;;;;;4.30;56.20;;;2.30;60.99;100293.16;12248287;19;19926;-86
2024/01/16 09:53:41;;;;;;;;;;;4.10;56.10;;;2.35;60.86;100303.28;12257376;19;19922;-87
2024/01/16 09:57:45;;;;;;;;;;;4.10;56.10;;;2.40;60.81;100304.88;12253849;19;19994;-87
2024/01/16 10:01:49;;;;;;;;;;;4.40;56.20;;;2.36;60.96;100299.84;12258678;19;19925;-86
2024/01/16 10:05:50;;;;;;;;;;;4.10;56.10;;;2.33;60.89;100297.38;12253404;19;19922;-87
2024/01/16 10:09:52;;;;;;;;;;;4.20;56.10;;;2.33;60.91;100281.91;12254526;19;19947;-89
2024/01/16 10:13:53;;;;;;;;;;;4.20;56.20;;;2.48;60.92;100307.22;12254971;19;20314;-88
2024/01/16 10:17:55;;;;;;;;;;;4.40;56.20;;;2.47;60.97;100305.53;12253656;19;20346;-88
2024/01/16 10:22:08;;;;;;;;;;;4.20;56.20;;;2.47;61.00;100304.69;12260769;19;19925;-87
2024/01/16 10:26:11;;;;;;;;;;;4.30;56.20;;;2.53;60.93;100310.50;12257243;19;19930;-87
2024/01/16 10:30:13;;;;;;;;;;;4.30;56.30;;;2.48;61.19;100289.19;12258359;19;20251;-87
2024/01/16 10:34:21;;;;;;;;;;;4.30;56.30;;;2.52;61.02;100300.25;12258559;19;19925;-87
2024/01/16 10:38:23;;;;;;;;;;;4.30;56.30;;;2.60;61.24;100301.72;12253491;19;19921;-87
2024/01/16 10:42:24;;;;;;;;;;;4.60;56.50;;;2.68;61.14;100316.13;12259144;19;19911;-87
2024/01/16 10:46:26;;;;;;;;;;;4.70;56.50;;;2.54;61.24;100280.41;12257017;19;19922;-87
2024/01/16 10:50:27;;;;;;;;;;;4.50;56.40;;;2.54;60.91;100275.25;12259006;19;19934;-87
2024/01/16 10:54:29;;;;;;;;;;;4.60;56.50;;;2.83;61.02;100313.06;12255865;19;20238;-88
2024/01/16 10:58:31;;;;;;;;;;;4.50;56.50;;;2.88;61.15;100306.88;12252791;19;19907;-87
2024/01/16 11:02:41;;;;;;;;;;;4.60;56.60;;;2.63;61.11;100250.06;12257299;19;19919;-87
2024/01/16 11:06:43;;;;;;;;;;;4.90;56.70;;;2.97;61.05;100305.78;12257830;19;20351;-87
2024/01/16 11:10:45;;;;;;;;;;;4.70;56.60;;;2.86;61.23;100282.91;12258617;19;20302;-87
2024/01/16 11:14:50;;;;;;;;;;;4.80;56.60;;;3.07;61.20;100307.16;12253911;19;19936;-87
2024/01/16 11:18:52;;;;;;;;;;;4.80;56.60;;;3.18;61.10;100309.41;12251534;19;19919;-87
2024/01/16 11:22:59;;;;;;;;;;;4.90;56.70;;;3.00;60.99;100264.44;12254054;19;20389;-87
2024/01/16 11:27:00;;;;;;;;;;;5.00;56.70;;;3.25;61.26;100294.59;12251976;19;19982;-88
2024/01/16 11:31:33;;;;;;;;;;;5.20;56.70;;;3.31;61.13;100299.56;12251556;19;20290;-87
2024/01/16 11:35:38;;;;;;;;;;;5.10;56.70;;;2.83;61.18;100215.09;12250581;19;19923;-87
2024/01/16 11:39:40;;;;;;;;;;;5.10;56.60;;;3.24;61.14;100278.28;12255920;19;19911;-87
2024/01/16 11:43:42;;;;;;;;;;;5.10;56.60;;;3.34;60.96;100291.72;12252849;19;19926;-87
2024/01/16 11:47:43;;;;;;;;;;;5.20;56.60;;;3.19;60.99;100253.53;12252637;19;19914;-87
2024/01/16 11:51:44;;;;;;;;;;;5.20;56.50;;;3.07;61.16;100224.63;12254748;19;19947;-87
2024/01/16 11:56:24;;;;;;;;;;;5.20;56.50;;;3.44;61.14;100287.09;12250460;19;20165;-87
2024/01/16 12:00:28;;;;;;;;;;;5.20;56.50;;;3.36;61.05;100268.44;12251850;19;19915;-88
2024/01/16 12:04:30;;;;;;;;;;;5.30;56.50;;;3.33;61.28;100252.16;12251963;19;19918;-87
2024/01/16 12:08:31;;;;;;;;;;;5.40;56.60;;;3.14;61.17;100224.44;12250835;19;19919;-87
2024/01/16 12:12:33;;;;;;;;;;;5.20;56.50;;;3.34;61.14;100247.84;12249513;19;19923;-87
2024/01/16 12:16:34;;;;;;;;;;;5.20;56.50;;;3.41;61.15;100259.66;12248932;19;20001;-87
2024/01/16 12:20:37;;;;;;;;;;;5.20;56.40;;;3.19;60.88;100227.72;12251629;19;19918;-87
2024/01/16 12:24:38;;;;;;;;;;;5.60;56.60;;;3.37;61.11;100246.91;12250433;19;20428;-87
2024/01/16 12:28:40;;;;;;;;;;;5.30;56.50;;;3.13;61.03;100196.94;12249334;19;19941;-87
2024/01/16 12:32:41;;;;;;;;;;;5.20;56.50;;;3.25;60.94;100209.44;12251720;19;19930;-87
2024/01/16 12:36:45;;;;;;;;;;;5.20;56.40;;;3.47;60.97;100232.78;12252239;19;19931;-87
2024/01/16 12:40:51;;;;;;;;;;;5.20;56.40;;;3.38;61.06;100210.72;12254803;19;19918;-87
2024/01/16 12:44:53;;;;;;;;;;;5.20;56.50;;;3.49;61.13;100220.69;12250881;19;20245;-87
2024/01/16 12:49:02;;;;;;;;;;;5.30;56.50;;;3.42;61.18;100203.72;12250331;19;20044;-87
2024/01/16 12:53:11;;;;;;;;;;;5.30;56.50;;;3.49;60.97;100205.19;12245505;19;19922;-87
2024/01/16 12:57:21;;;;;;;;;;;5.30;56.50;;;3.51;61.01;100206.84;12251783;19;19914;-87
2024/01/16 13:01:28;;;;;;;;;;;5.30;56.50;;;3.57;61.14;100212.69;12252800;19;19919;-87
2024/01/16 13:05:30;;;;;;;;;;;5.30;56.50;;;3.60;61.11;100215.16;12251644;19;19921;-87
2024/01/16 13:09:31;;;;;;;;;;;5.60;56.70;;;3.63;61.22;100209.88;12254459;19;19914;-87
2024/01/16 13:13:33;;;;;;;;;;;5.30;56.50;;;3.34;61.11;100167.84;12252555;19;20377;-88
2024/01/16 13:17:35;;;;;;;;;;;5.30;56.50;;;3.43;61.05;100183.03;12248504;19;19915;-87
2024/01/16 13:21:37;;;;;;;;;;;5.70;56.70;;;3.69;61.07;100222.56;12250946;19;19919;-87
2024/01/16 13:25:38;;;;;;;;;;;5.40;56.60;;;3.71;61.07;100228.53;12260938;19;19914;-87
2024/01/16 13:29:40;;;;;;;;;;;5.60;56.70;;;3.62;61.13;100215.94;12265071;19;19982;-88
2024/01/16 13:33:43;;;;;;;;;;;5.40;56.60;;;3.64;61.05;100221.88;12263355;19;19906;-88
2024/01/16 13:37:44;;;;;;;;;;;5.40;56.90;;;3.44;61.05;100182.13;12261692;19;19918;-88
2024/01/16 13:41:47;;;;;;;;;;;5.40;56.50;;;3.68;61.13;100223.47;12265331;19;19923;-88
2024/01/16 13:45:49;;;;;;;;;;;5.60;56.70;;;3.59;61.29;100211.72;12263018;19;19927;-88
2024/01/16 13:49:51;;;;;;;;;;;5.40;56.60;;;3.62;61.05;100221.09;12265214;19;19919;-88
2024/01/16 13:53:52;;;;;;;;;;;5.70;57.10;;;3.64;61.18;100219.31;12260496;19;19918;-88
2024/01/16 13:57:54;;;;;;;;;;;5.40;56.60;;;3.53;61.16;100197.28;12261323;19;19936;-88
2024/01/16 14:01:55;;;;;;;;;;;5.40;56.60;;;3.52;61.04;100195.59;12263143;19;19925;-88
2024/01/16 14:05:57;;;;;;;;;;;5.50;56.60;;;3.67;61.08;100208.88;12262916;19;19911;-88
2024/01/16 14:09:58;;;;;;;;;;;5.50;56.60;;;3.70;61.15;100206.16;12261448;19;19911;-88
2024/01/16 14:14:00;;;;;;;;;;;5.80;56.70;;;3.44;61.06;100158.91;12261143;19;19954;-88
2024/01/16 14:18:03;;;;;;;;;;;5.50;56.60;;;3.77;61.15;100220.56;12260900;19;20496;-88
2024/01/16 14:22:04;;;;;;;;;;;5.50;56.50;;;3.74;61.11;100210.34;12260150;19;19918;-88
2024/01/16 14:26:05;;;;;;;;;;;5.80;56.70;;;3.76;61.12;100217.16;12262663;19;19922;-88
2024/01/16 14:30:10;;;;;;;;;;;5.50;56.50;;;3.70;61.13;100208.75;12262713;19;19947;-88
2024/01/16 14:34:13;;;;;;;;;;;5.50;56.50;;;3.64;61.11;100196.06;12257951;19;19931;-88
2024/01/16 14:38:14;;;;;;;;;;;5.50;56.50;;;3.74;61.16;100221.50;12259653;19;19923;-88
2024/01/16 14:42:16;;;;;;;;;;;5.50;56.50;;;3.71;61.13;100195.81;12261613;19;20673;-88
2024/01/16 14:46:18;;;;;;;;;;;5.50;56.50;;;3.80;60.98;100217.03;12258284;19;19914;-89
2024/01/16 14:50:21;;;;;;;;;;;5.50;56.40;;;3.77;61.02;100207.66;12261374;19;19946;-88
2024/01/16 14:54:23;;;;;;;;;;;5.50;56.50;;;3.83;61.17;100215.16;12259663;19;19919;-88
2024/01/16 14:58:24;;;;;;;;;;;5.60;56.50;;;3.74;61.14;100205.19;12257345;19;19911;-88
2024/01/16 15:02:26;;;;;;;;;;;5.50;56.40;;;3.75;61.09;100194.81;12259464;19;19939;-88
2024/01/16 15:06:27;;;;;;;;;;;5.50;56.40;;;3.68;61.08;100192.50;12260701;19;19914;-88
2024/01/16 15:10:28;;;;;;;;;;;5.80;56.50;;;3.58;60.98;100179.06;12260049;19;19915;-88
2024/01/16 15:14:30;;;;;;;;;;;5.50;56.40;;;3.73;61.09;100206.09;12259527;19;20250;-88
2024/01/16 15:18:32;;;;;;;;;;;5.50;56.40;;;3.79;61.04;100213.59;12255786;19;19929;-88
2024/01/16 15:22:53;;;;;;;;;;;5.50;56.40;;;3.84;61.09;100222.03;12259720;19;19907;-88
2024/01/16 15:26:57;;;;;;;;;;;5.50;56.40;;;3.58;60.69;100188.53;12258751;19;19922;-88
2024/01/16 15:31:05;;;;;;;;;;;5.50;56.40;;;3.47;60.91;100192.34;12262673;19;19918;-88
2024/01/16 15:35:07;;;;;;;;;;;5.50;56.40;;;3.75;61.03;100232.69;12259784;19;19911;-88
2024/01/16 15:39:10;;;;;;;;;;;5.50;56.40;;;3.75;60.90;100246.47;12260607;19;19919;-88
2024/01/16 15:43:11;;;;;;;;;;;5.50;56.40;;;3.68;60.96;100237.22;12261404;19;19930;-89
2024/01/16 15:47:13;;;;;;;;;;;5.70;56.50;;;3.66;60.97;100235.59;12256523;19;19923;-88
2024/01/16 15:51:15;;;;;;;;;;;5.50;56.40;;;3.76;61.07;100255.88;12256976;19;19932;-88
2024/01/16 15:55:17;;;;;;;;;;;5.70;56.50;;;3.73;61.01;100261.16;12259733;19;19930;-88
2024/01/16 15:59:19;;;;;;;;;;;5.40;56.40;;;3.76;61.04;100257.63;12258367;19;19915;-88
2024/01/16 16:03:21;;;;;;;;;;;5.40;56.40;;;3.73;61.04;100250.00;12259059;19;19923;-88
2024/01/16 16:07:22;;;;;;;;;;;5.60;56.50;;;3.69;61.07;100243.22;12256994;19;19923;-88
2024/01/16 16:11:23;;;;;;;;;;;5.40;56.50;;;3.74;60.78;100257.66;12261435;19;20233;-88
2024/01/16 16:15:25;;;;;;;;;;;5.40;56.50;;;3.66;61.14;100239.00;12259589;19;19936;-88
2024/01/16 16:19:30;;;;;;;;;;;5.40;56.50;;;3.69;60.94;100243.22;12257758;19;20232;-88
2024/01/16 16:23:32;;;;;;;;;;;5.40;56.50;;;3.77;61.15;100251.53;12257952;19;19944;-89
2024/01/16 16:27:33;;;;;;;;;;;5.70;56.60;;;3.70;60.97;100253.50;12258669;19;19922;-88
2024/01/16 16:31:36;;;;;;;;;;;5.60;56.60;;;3.79;60.94;100270.41;12251675;19;19923;-89
2024/01/16 16:35:37;;;;;;;;;;;5.50;56.50;;;3.77;60.95;100285.97;12244982;19;19919;-88
2024/01/16 16:39:39;;;;;;;;;;;5.50;56.50;;;3.77;60.96;100287.69;12242236;19;20306;-88
2024/01/16 16:43:40;;;;;;;;;;;5.50;56.50;;;3.83;60.95;100292.66;12249092;19;20015;-88
2024/01/16 16:47:42;;;;;;;;;;;5.40;56.50;;;3.75;60.95;100279.16;12247852;19;19918;-88
2024/01/16 16:51:45;;;;;;;;;;;5.80;56.70;;;3.80;61.07;100292.75;12248284;19;19958;-88
2024/01/16 16:55:47;;;;;;;;;;;5.50;56.60;;;3.44;60.92;100236.31;12245349;19;19920;-88
2024/01/16 16:59:51;;;;;;;;;;;5.50;56.60;;;3.72;60.81;100272.34;12260396;19;19923;-88
2024/01/16 17:03:52;;;;;;;;;;;5.50;56.50;;;3.70;60.98;100268.13;12261941;19;19934;-88
2024/01/16 17:07:54;;;;;;;;;;;5.70;56.60;;;3.48;60.94;100230.19;12259452;19;19919;-88
2024/01/16 17:11:55;;;;;;;;;;;5.70;56.60;;;3.79;61.11;100279.91;12262324;19;19943;-88
2024/01/16 17:15:57;;;;;;;;;;;5.50;56.50;;;3.81;60.93;100278.09;12257088;19;19947;-88
2024/01/16 17:19:58;;;;;;;;;;;5.50;56.50;;;3.81;60.81;100272.94;12263539;19;19954;-88
2024/01/16 17:24:00;;;;;;;;;;;5.60;56.50;;;3.75;61.04;100266.25;12262914;19;19936;-88
2024/01/16 17:28:01;;;;;;;;;;;5.50;56.50;;;3.82;60.80;100284.97;12258789;19;19911;-88
2024/01/16 17:32:03;;;;;;;;;;;5.50;56.40;;;3.59;60.86;100253.00;12259205;19;19939;-88
2024/01/16 17:36:10;;;;;;;;;;;5.50;56.40;;;3.72;61.02;100266.34;12256427;19;19935;-87
2024/01/16 17:40:12;;;;;;;;;;;5.50;56.40;;;3.71;60.99;100262.09;12260336;19;20321;-87
2024/01/16 17:44:13;;;;;;;;;;;5.50;56.40;;;3.68;60.96;100260.47;12259139;19;20356;-87
2024/01/16 17:48:16;;;;;;;;;;;5.50;56.40;;;3.51;60.97;100242.97;12249645;19;19915;-87
2024/01/16 17:52:20;;;;;;;;;;;5.50;56.50;;;3.57;60.93;100244.50;12257856;19;19930;-87
2024/01/16 17:56:22;;;;;;;;;;;5.50;56.40;;;3.44;60.92;100230.31;12255979;19;19911;-87
2024/01/16 18:00:24;;;;;;;;;;;5.50;56.40;;;3.76;61.07;100291.19;12258085;19;19986;-87
2024/01/16 18:04:25;;;;;;;;;;;5.40;56.30;;;3.69;60.79;100297.44;12256027;19;19923;-87
2024/01/16 18:08:27;;;;;;;;;;;5.40;56.20;;;3.61;61.13;100283.94;12251160;19;19923;-87
2024/01/16 18:12:28;;;;;;;;;;;5.60;56.30;;;3.40;61.02;100268.28;12254999;19;20359;-87
2024/01/16 18:16:29;;;;;;;;;;;5.30;56.10;;;3.59;61.04;100296.06;12252180;19;19982;-87
2024/01/16 18:20:31;;;;;;;;;;;5.40;56.20;;;3.39;60.86;100268.34;12256622;19;19919;-87
2024/01/16 18:24:33;;;;;;;;;;;5.60;56.30;;;3.41;61.02;100269.97;12257414;19;19955;-87
2024/01/16 18:28:34;;;;;;;;;;;5.30;56.20;;;3.57;60.80;100300.47;12252821;19;19937;-87
2024/01/16 18:32:37;;;;;;;;;;;5.30;56.20;;;3.55;60.88;100305.66;12256793;19;19918;-87
2024/01/16 18:36:38;;;;;;;;;;;5.20;56.20;;;3.49;61.04;100308.44;12252675;19;20307;-87